sensor_id;sensor_type;location;lat;lon;timestamp;P1;durP1;ratioP1;P2;durP2;ratioP2
71773;SDS011;59607;52.130;5.430;2023-08-21T00:01:03;2.65;;;1.10;;
71773;SDS011;59607;52.130;5.430;2023-08-21T00:03:29;3.50;;;1.20;;
71773;SDS011;59607;52.130;5.430;2023-08-21T00:05:56;3.73;;;1.17;;
71773;SDS011;59607;52.130;5.430;2023-08-21T00:08:27;3.20;;;0.98;;
71773;SDS011;59607;52.130;5.430;2023-08-21T00:10:53;2.17;;;1.25;;
71773;SDS011;59607;52.130;5.430;2023-08-21T00:13:25;1.45;;;0.60;;
71773;SDS011;59607;52.130;5.430;2023-08-21T00:15:51;4.57;;;1.00;;
71773;SDS011;59607;52.130;5.430;2023-08-21T00:18:18;3.17;;;1.00;;
71773;SDS011;59607;52.130;5.430;2023-08-21T00:20:45;2.33;;;0.82;;
71773;SDS011;59607;52.130;5.430;2023-08-21T00:23:15;3.85;;;1.52;;
71773;SDS011;59607;52.130;5.430;2023-08-21T00:25:45;4.00;;;1.02;;
71773;SDS011;59607;52.130;5.430;2023-08-21T00:28:19;5.00;;;1.33;;
71773;SDS011;59607;52.130;5.430;2023-08-21T00:30:45;4.40;;;1.40;;
71773;SDS011;59607;52.130;5.430;2023-08-21T00:33:22;4.22;;;1.20;;
71773;SDS011;59607;52.130;5.430;2023-08-21T00:35:50;2.78;;;1.00;;
71773;SDS011;59607;52.130;5.430;2023-08-21T00:38:30;3.42;;;1.42;;
71773;SDS011;59607;52.130;5.430;2023-08-21T00:40:59;2.40;;;1.10;;
71773;SDS011;59607;52.130;5.430;2023-08-21T00:43:34;3.53;;;1.17;;
71773;SDS011;59607;52.130;5.430;2023-08-21T00:46:08;3.20;;;1.10;;
71773;SDS011;59607;52.130;5.430;2023-08-21T00:48:35;4.28;;;1.70;;
71773;SDS011;59607;52.130;5.430;2023-08-21T00:51:10;5.25;;;1.45;;
71773;SDS011;59607;52.130;5.430;2023-08-21T00:53:42;3.25;;;1.50;;
71773;SDS011;59607;52.130;5.430;2023-08-21T00:56:12;2.93;;;1.10;;
71773;SDS011;59607;52.130;5.430;2023-08-21T00:58:39;5.30;;;2.28;;
71773;SDS011;59607;52.130;5.430;2023-08-21T01:01:08;7.82;;;1.60;;
71773;SDS011;59607;52.130;5.430;2023-08-21T01:03:40;3.83;;;0.80;;
71773;SDS011;59607;52.130;5.430;2023-08-21T01:06:10;2.90;;;1.17;;
71773;SDS011;59607;52.130;5.430;2023-08-21T01:17:18;4.63;;;1.38;;
71773;SDS011;59607;52.130;5.430;2023-08-21T01:19:56;4.45;;;1.60;;
71773;SDS011;59607;52.130;5.430;2023-08-21T01:22:29;1.63;;;1.50;;
71773;SDS011;59607;52.130;5.430;2023-08-21T01:25:16;2.33;;;0.90;;
71773;SDS011;59607;52.130;5.430;2023-08-21T01:27:44;1.90;;;1.08;;
71773;SDS011;59607;52.130;5.430;2023-08-21T01:30:15;3.20;;;1.15;;
71773;SDS011;59607;52.130;5.430;2023-08-21T01:32:57;5.10;;;1.20;;
71773;SDS011;59607;52.130;5.430;2023-08-21T01:35:27;3.03;;;1.13;;
71773;SDS011;59607;52.130;5.430;2023-08-21T01:37:58;5.55;;;1.40;;
71773;SDS011;59607;52.130;5.430;2023-08-21T01:40:25;3.63;;;2.60;;
71773;SDS011;59607;52.130;5.430;2023-08-21T01:43:09;6.03;;;1.52;;
71773;SDS011;59607;52.130;5.430;2023-08-21T01:45:38;4.25;;;1.30;;
71773;SDS011;59607;52.130;5.430;2023-08-21T01:48:05;4.80;;;1.30;;
71773;SDS011;59607;52.130;5.430;2023-08-21T01:50:32;2.10;;;1.30;;
71773;SDS011;59607;52.130;5.430;2023-08-21T01:52:59;3.67;;;1.60;;
71773;SDS011;59607;52.130;5.430;2023-08-21T01:55:29;4.05;;;2.03;;
71773;SDS011;59607;52.130;5.430;2023-08-21T01:57:55;2.67;;;1.20;;
71773;SDS011;59607;52.130;5.430;2023-08-21T02:00:36;4.60;;;1.23;;
71773;SDS011;59607;52.130;5.430;2023-08-21T02:03:08;3.35;;;1.20;;
71773;SDS011;59607;52.130;5.430;2023-08-21T02:05:38;3.28;;;1.10;;
71773;SDS011;59607;52.130;5.430;2023-08-21T02:08:11;2.55;;;1.00;;
71773;SDS011;59607;52.130;5.430;2023-08-21T02:10:51;3.55;;;1.10;;
71773;SDS011;59607;52.130;5.430;2023-08-21T02:13:18;3.73;;;1.10;;
71773;SDS011;59607;52.130;5.430;2023-08-21T02:15:45;4.55;;;1.15;;
71773;SDS011;59607;52.130;5.430;2023-08-21T02:18:18;2.65;;;0.90;;
71773;SDS011;59607;52.130;5.430;2023-08-21T02:20:44;2.88;;;1.27;;
71773;SDS011;59607;52.130;5.430;2023-08-21T02:23:12;3.53;;;1.40;;
71773;SDS011;59607;52.130;5.430;2023-08-21T02:25:39;8.53;;;1.00;;
71773;SDS011;59607;52.130;5.430;2023-08-21T02:28:05;4.30;;;1.30;;
71773;SDS011;59607;52.130;5.430;2023-08-21T02:30:44;3.35;;;1.50;;
71773;SDS011;59607;52.130;5.430;2023-08-21T02:33:11;4.22;;;1.10;;
71773;SDS011;59607;52.130;5.430;2023-08-21T02:35:40;4.32;;;1.35;;
71773;SDS011;59607;52.130;5.430;2023-08-21T02:38:07;4.37;;;1.20;;
71773;SDS011;59607;52.130;5.430;2023-08-21T02:40:33;9.32;;;2.17;;
71773;SDS011;59607;52.130;5.430;2023-08-21T02:43:03;5.80;;;2.05;;
71773;SDS011;59607;52.130;5.430;2023-08-21T02:45:30;3.90;;;1.65;;
71773;SDS011;59607;52.130;5.430;2023-08-21T02:47:57;6.13;;;2.30;;
71773;SDS011;59607;52.130;5.430;2023-08-21T02:50:26;7.23;;;2.27;;
71773;SDS011;59607;52.130;5.430;2023-08-21T02:52:53;6.65;;;1.88;;
71773;SDS011;59607;52.130;5.430;2023-08-21T02:55:20;5.45;;;1.95;;
71773;SDS011;59607;52.130;5.430;2023-08-21T02:57:47;4.88;;;1.50;;
71773;SDS011;59607;52.130;5.430;2023-08-21T03:00:17;4.55;;;1.55;;
71773;SDS011;59607;52.130;5.430;2023-08-21T03:02:44;4.17;;;1.80;;
71773;SDS011;59607;52.130;5.430;2023-08-21T03:05:16;3.47;;;1.75;;
71773;SDS011;59607;52.130;5.430;2023-08-21T03:07:50;3.38;;;2.13;;
71773;SDS011;59607;52.130;5.430;2023-08-21T03:10:31;5.05;;;1.60;;
71773;SDS011;59607;52.130;5.430;2023-08-21T03:13:16;3.03;;;1.42;;
71773;SDS011;59607;52.130;5.430;2023-08-21T03:15:46;4.77;;;2.10;;
71773;SDS011;59607;52.130;5.430;2023-08-21T03:18:12;4.18;;;1.90;;
71773;SDS011;59607;52.130;5.430;2023-08-21T03:20:43;4.65;;;1.88;;
71773;SDS011;59607;52.130;5.430;2023-08-21T03:23:15;4.15;;;1.35;;
71773;SDS011;59607;52.130;5.430;2023-08-21T03:25:41;2.92;;;1.63;;
71773;SDS011;59607;52.130;5.430;2023-08-21T03:28:13;2.60;;;1.23;;
71773;SDS011;59607;52.130;5.430;2023-08-21T03:30:39;4.43;;;1.25;;
71773;SDS011;59607;52.130;5.430;2023-08-21T03:33:12;2.63;;;1.60;;
71773;SDS011;59607;52.130;5.430;2023-08-21T03:35:41;7.07;;;1.67;;
71773;SDS011;59607;52.130;5.430;2023-08-21T03:38:09;3.40;;;1.63;;
71773;SDS011;59607;52.130;5.430;2023-08-21T03:40:41;6.43;;;2.00;;
71773;SDS011;59607;52.130;5.430;2023-08-21T03:43:07;2.88;;;1.30;;
71773;SDS011;59607;52.130;5.430;2023-08-21T03:45:35;2.80;;;1.00;;
71773;SDS011;59607;52.130;5.430;2023-08-21T03:48:05;4.38;;;1.58;;
71773;SDS011;59607;52.130;5.430;2023-08-21T03:50:31;3.15;;;1.40;;
71773;SDS011;59607;52.130;5.430;2023-08-21T03:53:02;2.53;;;1.23;;
71773;SDS011;59607;52.130;5.430;2023-08-21T03:55:31;3.10;;;1.15;;
71773;SDS011;59607;52.130;5.430;2023-08-21T03:58:03;3.10;;;1.30;;
71773;SDS011;59607;52.130;5.430;2023-08-21T04:00:30;2.95;;;1.23;;
71773;SDS011;59607;52.130;5.430;2023-08-21T04:02:57;1.80;;;0.93;;
71773;SDS011;59607;52.130;5.430;2023-08-21T04:05:27;2.83;;;1.17;;
71773;SDS011;59607;52.130;5.430;2023-08-21T04:07:54;6.07;;;1.25;;
71773;SDS011;59607;52.130;5.430;2023-08-21T04:10:20;4.15;;;1.38;;
71773;SDS011;59607;52.130;5.430;2023-08-21T04:12:50;3.90;;;1.40;;
71773;SDS011;59607;52.130;5.430;2023-08-21T04:15:18;1.65;;;1.30;;
71773;SDS011;59607;52.130;5.430;2023-08-21T04:17:44;2.47;;;1.20;;
71773;SDS011;59607;52.130;5.430;2023-08-21T04:20:11;3.97;;;1.27;;
71773;SDS011;59607;52.130;5.430;2023-08-21T04:22:42;3.35;;;1.55;;
71773;SDS011;59607;52.130;5.430;2023-08-21T04:25:08;3.40;;;1.30;;
71773;SDS011;59607;52.130;5.430;2023-08-21T04:27:38;5.13;;;1.50;;
71773;SDS011;59607;52.130;5.430;2023-08-21T04:30:05;2.37;;;1.20;;
71773;SDS011;59607;52.130;5.430;2023-08-21T04:32:32;2.05;;;1.20;;
71773;SDS011;59607;52.130;5.430;2023-08-21T04:34:59;3.83;;;1.17;;
71773;SDS011;59607;52.130;5.430;2023-08-21T04:37:26;1.85;;;0.80;;
71773;SDS011;59607;52.130;5.430;2023-08-21T04:39:55;3.22;;;1.40;;
71773;SDS011;59607;52.130;5.430;2023-08-21T04:42:22;2.60;;;1.57;;
71773;SDS011;59607;52.130;5.430;2023-08-21T04:44:54;2.22;;;1.10;;
71773;SDS011;59607;52.130;5.430;2023-08-21T04:47:24;2.42;;;1.00;;
71773;SDS011;59607;52.130;5.430;2023-08-21T04:49:58;3.65;;;1.40;;
71773;SDS011;59607;52.130;5.430;2023-08-21T04:52:24;2.60;;;1.17;;
71773;SDS011;59607;52.130;5.430;2023-08-21T04:55:54;4.70;;;0.80;;
71773;SDS011;59607;52.130;5.430;2023-08-21T04:58:08;3.90;;;1.05;;
71773;SDS011;59607;52.130;5.430;2023-08-21T05:00:37;5.43;;;1.10;;
71773;SDS011;59607;52.130;5.430;2023-08-21T05:03:08;3.45;;;1.20;;
71773;SDS011;59607;52.130;5.430;2023-08-21T05:08:31;4.07;;;1.00;;
71773;SDS011;59607;52.130;5.430;2023-08-21T05:10:58;2.00;;;0.75;;
71773;SDS011;59607;52.130;5.430;2023-08-21T05:13:31;3.40;;;1.05;;
71773;SDS011;59607;52.130;5.430;2023-08-21T05:15:57;2.88;;;0.98;;
71773;SDS011;59607;52.130;5.430;2023-08-21T05:18:35;3.63;;;1.25;;
71773;SDS011;59607;52.130;5.430;2023-08-21T05:21:01;4.47;;;1.20;;
71773;SDS011;59607;52.130;5.430;2023-08-21T05:23:48;2.40;;;1.17;;
71773;SDS011;59607;52.130;5.430;2023-08-21T05:26:18;3.33;;;1.60;;
71773;SDS011;59607;52.130;5.430;2023-08-21T05:28:45;4.47;;;1.65;;
71773;SDS011;59607;52.130;5.430;2023-08-21T05:31:26;5.47;;;1.70;;
71773;SDS011;59607;52.130;5.430;2023-08-21T05:34:00;3.97;;;1.50;;
71773;SDS011;59607;52.130;5.430;2023-08-21T05:36:26;5.35;;;2.53;;
71773;SDS011;59607;52.130;5.430;2023-08-21T05:38:55;5.07;;;2.55;;
71773;SDS011;59607;52.130;5.430;2023-08-21T05:41:23;5.80;;;2.15;;
71773;SDS011;59607;52.130;5.430;2023-08-21T05:43:50;3.78;;;2.08;;
71773;SDS011;59607;52.130;5.430;2023-08-21T05:46:16;4.23;;;2.00;;
71773;SDS011;59607;52.130;5.430;2023-08-21T05:48:57;4.68;;;2.10;;
71773;SDS011;59607;52.130;5.430;2023-08-21T05:51:30;6.43;;;1.90;;
71773;SDS011;59607;52.130;5.430;2023-08-21T05:53:56;4.35;;;2.30;;
71773;SDS011;59607;52.130;5.430;2023-08-21T05:56:27;7.07;;;2.17;;
71773;SDS011;59607;52.130;5.430;2023-08-21T05:58:53;6.27;;;2.77;;
71773;SDS011;59607;52.130;5.430;2023-08-21T06:01:19;5.45;;;2.33;;
71773;SDS011;59607;52.130;5.430;2023-08-21T06:03:46;4.65;;;2.10;;
71773;SDS011;59607;52.130;5.430;2023-08-21T06:06:18;3.50;;;1.80;;
71773;SDS011;59607;52.130;5.430;2023-08-21T06:08:45;2.58;;;1.95;;
71773;SDS011;59607;52.130;5.430;2023-08-21T06:11:20;5.23;;;2.10;;
71773;SDS011;59607;52.130;5.430;2023-08-21T06:13:47;5.68;;;1.40;;
71773;SDS011;59607;52.130;5.430;2023-08-21T06:16:27;2.70;;;2.10;;
71773;SDS011;59607;52.130;5.430;2023-08-21T06:18:56;8.00;;;2.50;;
71773;SDS011;59607;52.130;5.430;2023-08-21T06:21:29;4.47;;;2.25;;
71773;SDS011;59607;52.130;5.430;2023-08-21T06:24:01;2.90;;;1.80;;
71773;SDS011;59607;52.130;5.430;2023-08-21T06:26:28;3.90;;;2.05;;
71773;SDS011;59607;52.130;5.430;2023-08-21T06:28:54;6.70;;;2.17;;
71773;SDS011;59607;52.130;5.430;2023-08-21T06:31:21;5.53;;;2.22;;
71773;SDS011;59607;52.130;5.430;2023-08-21T06:33:48;5.43;;;1.95;;
71773;SDS011;59607;52.130;5.430;2023-08-21T06:36:16;4.67;;;1.97;;
71773;SDS011;59607;52.130;5.430;2023-08-21T06:38:43;3.63;;;1.90;;
71773;SDS011;59607;52.130;5.430;2023-08-21T06:41:15;5.47;;;1.85;;
71773;SDS011;59607;52.130;5.430;2023-08-21T06:43:42;2.63;;;1.63;;
71773;SDS011;59607;52.130;5.430;2023-08-21T06:46:11;3.60;;;1.80;;
71773;SDS011;59607;52.130;5.430;2023-08-21T06:48:39;3.67;;;1.40;;
71773;SDS011;59607;52.130;5.430;2023-08-21T06:51:12;6.60;;;2.30;;
71773;SDS011;59607;52.130;5.430;2023-08-21T06:53:43;4.63;;;1.70;;
71773;SDS011;59607;52.130;5.430;2023-08-21T06:56:09;2.13;;;1.40;;
71773;SDS011;59607;52.130;5.430;2023-08-21T06:58:36;2.63;;;2.30;;
71773;SDS011;59607;52.130;5.430;2023-08-21T07:01:08;7.13;;;1.50;;
71773;SDS011;59607;52.130;5.430;2023-08-21T07:03:34;3.63;;;1.35;;
71773;SDS011;59607;52.130;5.430;2023-08-21T07:06:03;4.93;;;1.80;;
71773;SDS011;59607;52.130;5.430;2023-08-21T07:08:35;5.63;;;1.40;;
71773;SDS011;59607;52.130;5.430;2023-08-21T07:11:02;3.75;;;1.55;;
71773;SDS011;59607;52.130;5.430;2023-08-21T07:13:34;7.23;;;1.90;;
71773;SDS011;59607;52.130;5.430;2023-08-21T07:16:01;4.38;;;1.90;;
71773;SDS011;59607;52.130;5.430;2023-08-21T07:18:51;4.63;;;2.03;;
71773;SDS011;59607;52.130;5.430;2023-08-21T07:21:22;6.45;;;2.42;;
71773;SDS011;59607;52.130;5.430;2023-08-21T07:23:59;4.18;;;1.90;;
71773;SDS011;59607;52.130;5.430;2023-08-21T07:26:26;3.43;;;1.33;;
71773;SDS011;59607;52.130;5.430;2023-08-21T07:28:52;2.17;;;1.20;;
71773;SDS011;59607;52.130;5.430;2023-08-21T07:31:19;5.78;;;1.00;;
71773;SDS011;59607;52.130;5.430;2023-08-21T07:33:49;6.13;;;1.20;;
71773;SDS011;59607;52.130;5.430;2023-08-21T07:36:22;2.95;;;1.10;;
71773;SDS011;59607;52.130;5.430;2023-08-21T07:38:51;8.10;;;2.53;;
71773;SDS011;59607;52.130;5.430;2023-08-21T07:41:24;4.28;;;1.23;;
71773;SDS011;59607;52.130;5.430;2023-08-21T07:43:53;3.05;;;1.60;;
71773;SDS011;59607;52.130;5.430;2023-08-21T07:46:25;5.78;;;1.50;;
71773;SDS011;59607;52.130;5.430;2023-08-21T07:48:52;2.67;;;1.55;;
71773;SDS011;59607;52.130;5.430;2023-08-21T07:51:19;3.53;;;1.60;;
71773;SDS011;59607;52.130;5.430;2023-08-21T07:53:48;5.03;;;1.33;;
71773;SDS011;59607;52.130;5.430;2023-08-21T07:56:17;6.50;;;2.40;;
71773;SDS011;59607;52.130;5.430;2023-08-21T07:58:44;4.63;;;1.40;;
71773;SDS011;59607;52.130;5.430;2023-08-21T08:01:14;3.72;;;1.13;;
71773;SDS011;59607;52.130;5.430;2023-08-21T08:03:48;3.03;;;1.13;;
71773;SDS011;59607;52.130;5.430;2023-08-21T08:06:22;3.80;;;1.20;;
71773;SDS011;59607;52.130;5.430;2023-08-21T08:08:49;4.28;;;1.60;;
71773;SDS011;59607;52.130;5.430;2023-08-21T08:11:19;2.75;;;0.68;;
71773;SDS011;59607;52.130;5.430;2023-08-21T08:13:49;4.55;;;0.80;;
71773;SDS011;59607;52.130;5.430;2023-08-21T08:16:18;4.37;;;0.70;;
71773;SDS011;59607;52.130;5.430;2023-08-21T08:18:52;3.45;;;0.70;;
71773;SDS011;59607;52.130;5.430;2023-08-21T08:21:20;3.00;;;0.73;;
71773;SDS011;59607;52.130;5.430;2023-08-21T08:23:53;4.60;;;1.33;;
71773;SDS011;59607;52.130;5.430;2023-08-21T08:26:19;2.92;;;0.73;;
71773;SDS011;59607;52.130;5.430;2023-08-21T08:28:53;5.23;;;0.73;;
71773;SDS011;59607;52.130;5.430;2023-08-21T08:31:20;4.35;;;0.68;;
71773;SDS011;59607;52.130;5.430;2023-08-21T08:33:57;4.70;;;0.88;;
71773;SDS011;59607;52.130;5.430;2023-08-21T08:36:24;2.80;;;0.80;;
71773;SDS011;59607;52.130;5.430;2023-08-21T08:39:26;5.00;;;1.50;;
71773;SDS011;59607;52.130;5.430;2023-08-21T08:41:57;3.93;;;0.60;;
71773;SDS011;59607;52.130;5.430;2023-08-21T08:44:33;4.03;;;0.52;;
71773;SDS011;59607;52.130;5.430;2023-08-21T08:47:10;6.15;;;1.33;;
71773;SDS011;59607;52.130;5.430;2023-08-21T08:49:40;4.10;;;0.68;;
71773;SDS011;59607;52.130;5.430;2023-08-21T08:52:09;1.75;;;0.60;;
71773;SDS011;59607;52.130;5.430;2023-08-21T08:54:36;4.87;;;0.87;;
71773;SDS011;59607;52.130;5.430;2023-08-21T08:57:09;4.68;;;0.77;;
71773;SDS011;59607;52.130;5.430;2023-08-21T08:59:38;5.53;;;0.75;;
71773;SDS011;59607;52.130;5.430;2023-08-21T09:02:05;2.10;;;0.40;;
71773;SDS011;59607;52.130;5.430;2023-08-21T09:04:32;4.75;;;1.00;;
71773;SDS011;59607;52.130;5.430;2023-08-21T09:07:17;6.30;;;1.07;;
71773;SDS011;59607;52.130;5.430;2023-08-21T09:09:47;2.78;;;0.68;;
71773;SDS011;59607;52.130;5.430;2023-08-21T09:12:21;2.50;;;0.70;;
71773;SDS011;59607;52.130;5.430;2023-08-21T09:14:50;3.50;;;0.80;;
71773;SDS011;59607;52.130;5.430;2023-08-21T09:17:22;3.83;;;1.40;;
71773;SDS011;59607;52.130;5.430;2023-08-21T09:19:53;2.93;;;1.00;;
71773;SDS011;59607;52.130;5.430;2023-08-21T09:22:23;4.13;;;0.50;;
71773;SDS011;59607;52.130;5.430;2023-08-21T09:27:48;4.30;;;0.90;;
71773;SDS011;59607;52.130;5.430;2023-08-21T09:30:25;2.63;;;0.68;;
71773;SDS011;59607;52.130;5.430;2023-08-21T09:32:57;3.20;;;0.77;;
71773;SDS011;59607;52.130;5.430;2023-08-21T09:35:41;3.45;;;0.82;;
71773;SDS011;59607;52.130;5.430;2023-08-21T09:38:09;3.72;;;0.80;;
71773;SDS011;59607;52.130;5.430;2023-08-21T09:40:41;5.07;;;0.70;;
71773;SDS011;59607;52.130;5.430;2023-08-21T09:43:12;4.00;;;0.80;;
71773;SDS011;59607;52.130;5.430;2023-08-21T09:45:39;1.73;;;0.57;;
71773;SDS011;59607;52.130;5.430;2023-08-21T09:48:08;1.45;;;0.57;;
71773;SDS011;59607;52.130;5.430;2023-08-21T09:50:42;4.45;;;0.60;;
71773;SDS011;59607;52.130;5.430;2023-08-21T09:53:19;2.80;;;0.50;;
71773;SDS011;59607;52.130;5.430;2023-08-21T09:55:48;2.92;;;0.60;;
71773;SDS011;59607;52.130;5.430;2023-08-21T09:58:21;2.87;;;0.60;;
71773;SDS011;59607;52.130;5.430;2023-08-21T10:00:49;3.10;;;0.70;;
71773;SDS011;59607;52.130;5.430;2023-08-21T10:03:23;3.40;;;0.50;;
71773;SDS011;59607;52.130;5.430;2023-08-21T10:05:59;2.80;;;0.75;;
71773;SDS011;59607;52.130;5.430;2023-08-21T10:08:32;4.35;;;0.90;;
71773;SDS011;59607;52.130;5.430;2023-08-21T10:11:08;5.80;;;0.97;;
71773;SDS011;59607;52.130;5.430;2023-08-21T10:13:36;4.85;;;0.63;;
71773;SDS011;59607;52.130;5.430;2023-08-21T10:16:05;5.30;;;1.10;;
71773;SDS011;59607;52.130;5.430;2023-08-21T10:18:42;3.42;;;0.63;;
71773;SDS011;59607;52.130;5.430;2023-08-21T10:21:15;2.00;;;0.90;;
71773;SDS011;59607;52.130;5.430;2023-08-21T10:23:47;4.00;;;0.63;;
71773;SDS011;59607;52.130;5.430;2023-08-21T10:26:15;4.00;;;1.00;;
71773;SDS011;59607;52.130;5.430;2023-08-21T10:31:34;4.45;;;1.10;;
71773;SDS011;59607;52.130;5.430;2023-08-21T10:34:10;2.05;;;0.98;;
71773;SDS011;59607;52.130;5.430;2023-08-21T10:39:18;2.47;;;0.40;;
71773;SDS011;59607;52.130;5.430;2023-08-21T10:41:54;5.75;;;1.00;;
71773;SDS011;59607;52.130;5.430;2023-08-21T10:44:54;2.78;;;0.40;;
71773;SDS011;59607;52.130;5.430;2023-08-21T10:50:00;3.30;;;0.80;;
71773;SDS011;59607;52.130;5.430;2023-08-21T10:53:00;3.22;;;0.50;;
71773;SDS011;59607;52.130;5.430;2023-08-21T10:55:33;4.63;;;0.80;;
71773;SDS011;59607;52.130;5.430;2023-08-21T10:57:59;3.63;;;0.70;;
71773;SDS011;59607;52.130;5.430;2023-08-21T11:00:29;2.33;;;0.60;;
71773;SDS011;59607;52.130;5.430;2023-08-21T11:02:58;2.43;;;0.40;;
71773;SDS011;59607;52.130;5.430;2023-08-21T11:05:26;3.72;;;0.50;;
71773;SDS011;59607;52.130;5.430;2023-08-21T11:07:57;1.33;;;0.60;;
71773;SDS011;59607;52.130;5.430;2023-08-21T11:10:24;1.38;;;0.50;;
71773;SDS011;59607;52.130;5.430;2023-08-21T11:13:11;1.98;;;0.50;;
71773;SDS011;59607;52.130;5.430;2023-08-21T11:15:42;1.70;;;0.60;;
71773;SDS011;59607;52.130;5.430;2023-08-21T11:18:11;2.45;;;0.60;;
71773;SDS011;59607;52.130;5.430;2023-08-21T11:20:46;2.92;;;0.45;;
71773;SDS011;59607;52.130;5.430;2023-08-21T11:23:13;2.50;;;0.50;;
71773;SDS011;59607;52.130;5.430;2023-08-21T11:25:42;1.35;;;0.70;;
71773;SDS011;59607;52.130;5.430;2023-08-21T11:28:09;2.07;;;0.57;;
71773;SDS011;59607;52.130;5.430;2023-08-21T11:30:35;2.70;;;0.50;;
71773;SDS011;59607;52.130;5.430;2023-08-21T11:33:12;3.53;;;0.90;;
71773;SDS011;59607;52.130;5.430;2023-08-21T11:35:40;4.00;;;0.68;;
71773;SDS011;59607;52.130;5.430;2023-08-21T11:38:23;3.15;;;0.70;;
71773;SDS011;59607;52.130;5.430;2023-08-21T11:40:57;2.33;;;0.57;;
71773;SDS011;59607;52.130;5.430;2023-08-21T11:43:38;3.08;;;0.88;;
71773;SDS011;59607;52.130;5.430;2023-08-21T11:46:06;3.63;;;0.65;;
71773;SDS011;59607;52.130;5.430;2023-08-21T11:48:39;2.10;;;0.77;;
71773;SDS011;59607;52.130;5.430;2023-08-21T11:51:07;2.08;;;0.57;;
71773;SDS011;59607;52.130;5.430;2023-08-21T11:53:39;3.60;;;0.60;;
71773;SDS011;59607;52.130;5.430;2023-08-21T11:56:13;3.95;;;0.55;;
71773;SDS011;59607;52.130;5.430;2023-08-21T11:58:41;1.45;;;0.70;;
71773;SDS011;59607;52.130;5.430;2023-08-21T12:01:18;1.83;;;0.60;;
71773;SDS011;59607;52.130;5.430;2023-08-21T12:03:49;2.95;;;0.52;;
71773;SDS011;59607;52.130;5.430;2023-08-21T12:06:24;2.17;;;0.70;;
71773;SDS011;59607;52.130;5.430;2023-08-21T12:08:54;1.98;;;0.50;;
71773;SDS011;59607;52.130;5.430;2023-08-21T12:11:23;5.55;;;1.13;;
71773;SDS011;59607;52.130;5.430;2023-08-21T12:13:53;2.03;;;0.60;;
71773;SDS011;59607;52.130;5.430;2023-08-21T12:16:19;4.22;;;0.80;;
71773;SDS011;59607;52.130;5.430;2023-08-21T12:18:49;4.13;;;1.00;;
71773;SDS011;59607;52.130;5.430;2023-08-21T12:21:20;1.45;;;0.60;;
71773;SDS011;59607;52.130;5.430;2023-08-21T12:23:58;3.38;;;0.65;;
71773;SDS011;59607;52.130;5.430;2023-08-21T12:26:25;3.10;;;0.80;;
71773;SDS011;59607;52.130;5.430;2023-08-21T12:29:02;3.03;;;0.50;;
71773;SDS011;59607;52.130;5.430;2023-08-21T12:31:28;1.43;;;0.50;;
71773;SDS011;59607;52.130;5.430;2023-08-21T12:33:56;1.50;;;0.60;;
71773;SDS011;59607;52.130;5.430;2023-08-21T12:36:25;2.58;;;0.90;;
71773;SDS011;59607;52.130;5.430;2023-08-21T12:38:52;1.88;;;0.50;;
71773;SDS011;59607;52.130;5.430;2023-08-21T12:41:22;1.80;;;0.65;;
71773;SDS011;59607;52.130;5.430;2023-08-21T12:43:48;4.90;;;0.93;;
71773;SDS011;59607;52.130;5.430;2023-08-21T12:46:15;3.13;;;0.68;;
71773;SDS011;59607;52.130;5.430;2023-08-21T12:48:41;2.95;;;1.02;;
71773;SDS011;59607;52.130;5.430;2023-08-21T12:51:16;3.15;;;0.80;;
71773;SDS011;59607;52.130;5.430;2023-08-21T12:53:42;2.45;;;0.90;;
71773;SDS011;59607;52.130;5.430;2023-08-21T12:56:17;1.43;;;0.53;;
71773;SDS011;59607;52.130;5.430;2023-08-21T12:58:45;2.00;;;0.60;;
71773;SDS011;59607;52.130;5.430;2023-08-21T13:01:21;2.67;;;0.90;;
71773;SDS011;59607;52.130;5.430;2023-08-21T13:03:48;1.55;;;0.82;;
71773;SDS011;59607;52.130;5.430;2023-08-21T13:06:21;2.30;;;0.65;;
71773;SDS011;59607;52.130;5.430;2023-08-21T13:08:47;3.30;;;0.93;;
71773;SDS011;59607;52.130;5.430;2023-08-21T13:11:24;1.77;;;0.73;;
71773;SDS011;59607;52.130;5.430;2023-08-21T13:13:50;2.35;;;0.75;;
71773;SDS011;59607;52.130;5.430;2023-08-21T13:16:20;2.53;;;0.70;;
71773;SDS011;59607;52.130;5.430;2023-08-21T13:18:52;3.03;;;0.98;;
71773;SDS011;59607;52.130;5.430;2023-08-21T13:21:19;1.90;;;0.70;;
71773;SDS011;59607;52.130;5.430;2023-08-21T13:23:49;3.05;;;0.70;;
71773;SDS011;59607;52.130;5.430;2023-08-21T13:26:16;3.15;;;0.80;;
71773;SDS011;59607;52.130;5.430;2023-08-21T13:28:45;2.67;;;0.55;;
71773;SDS011;59607;52.130;5.430;2023-08-21T13:31:15;1.30;;;0.82;;
71773;SDS011;59607;52.130;5.430;2023-08-21T13:33:51;2.50;;;0.67;;
71773;SDS011;59607;52.130;5.430;2023-08-21T13:36:21;1.35;;;0.60;;
71773;SDS011;59607;52.130;5.430;2023-08-21T13:38:51;1.48;;;0.70;;
71773;SDS011;59607;52.130;5.430;2023-08-21T13:41:21;2.38;;;1.00;;
71773;SDS011;59607;52.130;5.430;2023-08-21T13:43:48;3.03;;;1.13;;
71773;SDS011;59607;52.130;5.430;2023-08-21T13:46:23;3.17;;;1.13;;
71773;SDS011;59607;52.130;5.430;2023-08-21T13:48:52;2.03;;;0.80;;
71773;SDS011;59607;52.130;5.430;2023-08-21T13:51:26;1.95;;;1.00;;
71773;SDS011;59607;52.130;5.430;2023-08-21T13:53:52;1.63;;;0.50;;
71773;SDS011;59607;52.130;5.430;2023-08-21T13:56:21;3.95;;;0.60;;
71773;SDS011;59607;52.130;5.430;2023-08-21T13:58:48;2.50;;;1.00;;
71773;SDS011;59607;52.130;5.430;2023-08-21T14:01:14;1.20;;;0.60;;
71773;SDS011;59607;52.130;5.430;2023-08-21T14:03:41;1.50;;;0.80;;
71773;SDS011;59607;52.130;5.430;2023-08-21T14:06:22;2.40;;;1.10;;
71773;SDS011;59607;52.130;5.430;2023-08-21T14:08:58;2.78;;;0.80;;
71773;SDS011;59607;52.130;5.430;2023-08-21T14:11:24;1.23;;;0.60;;
71773;SDS011;59607;52.130;5.430;2023-08-21T14:13:57;1.55;;;0.85;;
71773;SDS011;59607;52.130;5.430;2023-08-21T14:16:23;2.08;;;0.80;;
71773;SDS011;59607;52.130;5.430;2023-08-21T14:18:50;3.42;;;0.80;;
71773;SDS011;59607;52.130;5.430;2023-08-21T14:21:22;3.28;;;0.90;;
71773;SDS011;59607;52.130;5.430;2023-08-21T14:23:48;1.50;;;0.63;;
71773;SDS011;59607;52.130;5.430;2023-08-21T14:26:22;4.70;;;0.52;;
71773;SDS011;59607;52.130;5.430;2023-08-21T14:28:49;1.95;;;0.52;;
71773;SDS011;59607;52.130;5.430;2023-08-21T14:31:26;3.28;;;0.80;;
71773;SDS011;59607;52.130;5.430;2023-08-21T14:33:53;1.88;;;0.95;;
71773;SDS011;59607;52.130;5.430;2023-08-21T14:36:21;2.23;;;0.70;;
71773;SDS011;59607;52.130;5.430;2023-08-21T14:38:55;2.15;;;0.68;;
71773;SDS011;59607;52.130;5.430;2023-08-21T14:41:24;3.50;;;0.90;;
71773;SDS011;59607;52.130;5.430;2023-08-21T14:43:53;6.28;;;0.50;;
71773;SDS011;59607;52.130;5.430;2023-08-21T14:46:20;2.38;;;0.77;;
71773;SDS011;59607;52.130;5.430;2023-08-21T14:49:07;2.47;;;0.50;;
71773;SDS011;59607;52.130;5.430;2023-08-21T14:51:37;5.00;;;2.28;;
71773;SDS011;59607;52.130;5.430;2023-08-21T14:54:04;3.30;;;2.40;;
71773;SDS011;59607;52.130;5.430;2023-08-21T14:56:30;4.43;;;1.23;;
71773;SDS011;59607;52.130;5.430;2023-08-21T14:59:01;1.70;;;0.70;;
71773;SDS011;59607;52.130;5.430;2023-08-21T15:01:28;1.70;;;0.70;;
71773;SDS011;59607;52.130;5.430;2023-08-21T15:04:03;1.48;;;0.80;;
71773;SDS011;59607;52.130;5.430;2023-08-21T15:06:30;2.85;;;0.80;;
71773;SDS011;59607;52.130;5.430;2023-08-21T15:09:00;1.75;;;0.50;;
71773;SDS011;59607;52.130;5.430;2023-08-21T15:11:30;4.10;;;1.23;;
71773;SDS011;59607;52.130;5.430;2023-08-21T15:13:57;3.90;;;0.83;;
71773;SDS011;59607;52.130;5.430;2023-08-21T15:16:23;2.20;;;0.65;;
71773;SDS011;59607;52.130;5.430;2023-08-21T15:18:51;2.40;;;0.82;;
71773;SDS011;59607;52.130;5.430;2023-08-21T15:21:19;3.97;;;0.68;;
71773;SDS011;59607;52.130;5.430;2023-08-21T15:23:48;2.13;;;1.05;;
71773;SDS011;59607;52.130;5.430;2023-08-21T15:26:15;3.23;;;0.90;;
71773;SDS011;59607;52.130;5.430;2023-08-21T15:28:41;3.38;;;0.70;;
71773;SDS011;59607;52.130;5.430;2023-08-21T15:31:08;1.80;;;0.80;;